Time;durP1;ratioP1;P1;durP2;ratioP2;P2;SDS_P1;SDS_P2;PMS_P1;PMS_P2;Temp;Humidity;BMP_temperature;BMP_pressure;BME280_temperature;BME280_humidity;BME280_pressure;Samples;Min_cycle;Max_cycle;Signal;HPM_P1;HPM_P2
2023/06/04 00:01:03;;;;;;;;;;;;;;;16.68;49.09;99827.44;4490971;31;33244;-77
2023/06/04 00:03:44;;;;;;;;;;;;;;;16.46;49.86;99834.34;4492019;31;33596;-77
2023/06/04 00:06:14;;;;;;;;;;;;;;;16.69;49.02;99836.97;4491667;31;33934;-77
2023/06/04 00:08:43;;;;;;;;;;;;;;;16.86;48.75;99833.78;4493751;31;33981;-78
2023/06/04 00:11:13;;;;;;;;;;;;;;;16.65;49.17;99838.03;4490117;31;32715;-76
2023/06/04 00:13:42;;;;;;;;;;;;;;;16.66;49.40;99836.25;4491525;31;34487;-77
2023/06/04 00:16:10;;;;;;;;;;;;;;;16.58;49.28;99834.75;4486155;31;34000;-77
2023/06/04 00:18:40;;;;;;;;;;;;;;;16.60;48.71;99838.19;4491336;31;33454;-78
2023/06/04 00:21:08;;;;;;;;;;;;;;;16.53;49.22;99836.69;4489822;31;33885;-79
2023/06/04 00:23:39;;;;;;;;;;;;;;;16.54;48.98;99830.53;4476462;31;34488;-77
2023/06/04 00:26:07;;;;;;;;;;;;;;;16.61;48.67;99828.56;4475989;32;34360;-79
2023/06/04 00:28:36;;;;;;;;;;;;;;;16.64;48.78;99823.19;4483677;31;35366;-78
2023/06/04 00:31:05;;;;;;;;;;;;;;;16.71;48.39;99826.47;4482457;32;33976;-78
2023/06/04 00:33:35;;;;;;;;;;;;;;;16.58;48.54;99824.28;4476975;32;34684;-79
2023/06/04 00:36:05;;;;;;;;;;;;;;;16.57;48.60;99819.09;4480476;31;34245;-77
2023/06/04 00:38:34;;;;;;;;;;;;;;;16.69;48.20;99818.66;4492545;31;33142;-77
2023/06/04 00:41:04;;;;;;;;;;;;;;;16.42;49.10;99823.97;4498388;31;34632;-77
2023/06/04 00:43:35;;;;;;;;;;;;;;;16.57;48.94;99819.09;4470630;32;32247;-79
2023/06/04 00:46:06;;;;;;;;;;;;;;;16.54;49.30;99822.69;4476662;32;34087;-77
2023/06/04 00:48:36;;;;;;;;;;;;;;;16.52;49.02;99828.88;4476643;32;34907;-78
2023/06/04 00:51:05;;;;;;;;;;;;;;;16.47;49.08;99831.66;4480961;31;33342;-78
2023/06/04 00:53:34;;;;;;;;;;;;;;;16.35;49.40;99829.47;4484728;31;33421;-77
2023/06/04 00:56:05;;;;;;;;;;;;;;;16.53;48.50;99833.22;4492322;31;34807;-80
2023/06/04 00:58:34;;;;;;;;;;;;;;;16.45;48.99;99837.84;4492786;31;34808;-77
2023/06/04 01:01:04;;;;;;;;;;;;;;;16.44;49.45;99829.16;4492445;31;32320;-77
2023/06/04 01:03:34;;;;;;;;;;;;;;;16.43;49.09;99824.84;4498254;31;34601;-77
2023/06/04 01:06:05;;;;;;;;;;;;;;;16.64;49.11;99831.91;4492651;31;33522;-78
2023/06/04 01:08:34;;;;;;;;;;;;;;;16.71;48.19;99821.22;4479844;31;33215;-76
2023/06/04 01:11:02;;;;;;;;;;;;;;;16.76;47.85;99819.28;4481865;31;33300;-77
2023/06/04 01:13:33;;;;;;;;;;;;;;;16.66;47.56;99813.53;4494316;31;33912;-77
2023/06/04 01:16:03;;;;;;;;;;;;;;;16.68;47.61;99811.72;4497890;31;33925;-77
2023/06/04 01:18:32;;;;;;;;;;;;;;;16.82;47.60;99814.72;4492317;31;33154;-78
2023/06/04 01:21:02;;;;;;;;;;;;;;;16.73;47.83;99815.00;4492164;31;33480;-80
2023/06/04 01:23:34;;;;;;;;;;;;;;;16.76;47.04;99821.91;4494958;31;34815;-77
2023/06/04 01:26:04;;;;;;;;;;;;;;;16.73;46.85;99816.78;4497790;31;33902;-77
2023/06/04 01:28:34;;;;;;;;;;;;;;;16.63;47.37;99826.75;4485180;31;33980;-77
2023/06/04 01:31:07;;;;;;;;;;;;;;;16.82;46.80;99826.97;4478177;32;33988;-77
2023/06/04 01:33:36;;;;;;;;;;;;;;;16.56;46.98;99831.34;4487153;31;34859;-77
2023/06/04 01:36:06;;;;;;;;;;;;;;;16.49;47.54;99832.47;4489860;31;34165;-77
2023/06/04 01:38:35;;;;;;;;;;;;;;;16.43;48.42;99830.06;4483677;32;34211;-77
2023/06/04 01:41:04;;;;;;;;;;;;;;;16.45;48.94;99837.84;4478469;32;33531;-77
2023/06/04 01:43:35;;;;;;;;;;;;;;;16.56;48.09;99827.88;4478192;32;33989;-77
2023/06/04 01:46:04;;;;;;;;;;;;;;;16.61;47.93;99833.78;4481636;31;34479;-80
2023/06/04 01:48:33;;;;;;;;;;;;;;;16.36;48.65;99831.19;4483722;32;34500;-77
2023/06/04 01:51:02;;;;;;;;;;;;;;;16.41;48.30;99821.41;4478573;31;31799;-80
2023/06/04 01:53:31;;;;;;;;;;;;;;;16.54;48.23;99827.91;4480092;32;33966;-79
2023/06/04 01:56:01;;;;;;;;;;;;;;;16.46;48.26;99823.88;4478892;31;35117;-78
2023/06/04 01:58:31;;;;;;;;;;;;;;;16.53;48.17;99820.97;4499508;31;33592;-79
2023/06/04 02:01:04;;;;;;;;;;;;;;;16.60;47.66;99819.84;4498607;31;33217;-79
2023/06/04 02:03:36;;;;;;;;;;;;;;;16.51;47.62;99824.56;4493502;31;34726;-77
2023/06/04 02:06:07;;;;;;;;;;;;;;;16.47;47.14;99821.19;4493938;31;33626;-81
2023/06/04 02:08:36;;;;;;;;;;;;;;;16.48;47.01;99828.16;4481483;31;33846;-77
2023/06/04 02:11:05;;;;;;;;;;;;;;;16.48;46.92;99832.50;4483861;32;33241;-79
2023/06/04 02:13:34;;;;;;;;;;;;;;;16.46;47.51;99831.72;4477796;31;34226;-77
2023/06/04 02:16:04;;;;;;;;;;;;;;;16.47;47.21;99834.28;4478247;32;34132;-77
2023/06/04 02:18:33;;;;;;;;;;;;;;;16.40;47.72;99841.47;4479402;31;33201;-77
2023/06/04 02:21:03;;;;;;;;;;;;;;;16.35;47.77;99837.31;4483146;31;32498;-77
2023/06/04 02:23:35;;;;;;;;;;;;;;;16.36;48.08;99839.91;4488841;31;33220;-76
2023/06/04 02:26:05;;;;;;;;;;;;;;;16.25;48.06;99833.31;4487127;31;33652;-79
2023/06/04 02:28:33;;;;;;;;;;;;;;;16.37;47.62;99843.38;4482945;31;34275;-78
2023/06/04 02:31:04;;;;;;;;;;;;;;;16.35;47.85;99837.31;4477485;31;34113;-77
2023/06/04 02:33:33;;;;;;;;;;;;;;;16.32;47.91;99837.44;4486352;31;33596;-80
2023/06/04 02:36:02;;;;;;;;;;;;;;;16.27;47.69;99837.59;4479336;31;34069;-79
2023/06/04 02:38:30;;;;;;;;;;;;;;;16.28;47.84;99835.81;4476541;31;33927;-77
2023/06/04 02:40:59;;;;;;;;;;;;;;;16.28;48.21;99834.06;4493282;31;32812;-77
2023/06/04 02:43:28;;;;;;;;;;;;;;;16.13;48.13;99831.97;4488986;31;33671;-77
2023/06/04 02:45:58;;;;;;;;;;;;;;;16.06;48.94;99827.84;4479978;31;35037;-77
2023/06/04 02:48:28;;;;;;;;;;;;;;;16.07;49.09;99825.19;4481878;31;33974;-78
2023/06/04 02:50:57;;;;;;;;;;;;;;;16.01;49.81;99822.75;4477444;31;34463;-77
2023/06/04 02:53:26;;;;;;;;;;;;;;;15.96;49.94;99830.75;4478301;31;33907;-79
2023/06/04 02:55:54;;;;;;;;;;;;;;;15.82;50.44;99832.13;4483135;31;35023;-78
2023/06/04 02:58:25;;;;;;;;;;;;;;;15.87;50.40;99832.81;4480651;31;33794;-77
2023/06/04 03:00:54;;;;;;;;;;;;;;;15.94;49.82;99829.94;4485688;31;33029;-78
2023/06/04 03:03:23;;;;;;;;;;;;;;;15.79;50.37;99828.69;4482776;31;34312;-79
2023/06/04 03:05:53;;;;;;;;;;;;;;;15.72;50.77;99823.72;4487361;31;33656;-80
2023/06/04 03:08:26;;;;;;;;;;;;;;;15.75;50.99;99834.97;4480642;31;33771;-78
2023/06/04 03:10:55;;;;;;;;;;;;;;;15.79;51.12;99835.69;4468696;31;31837;-79
2023/06/04 03:13:24;;;;;;;;;;;;;;;16.01;51.15;99835.84;4488639;31;33934;-79
2023/06/04 03:15:55;;;;;;;;;;;;;;;15.89;50.96;99839.72;4493233;31;33568;-77
2023/06/04 03:18:24;;;;;;;;;;;;;;;15.78;51.02;99841.84;4484012;31;33863;-77
2023/06/04 03:20:54;;;;;;;;;;;;;;;15.80;50.93;99834.78;4490954;31;33439;-77
2023/06/04 03:23:23;;;;;;;;;;;;;;;15.82;49.98;99832.13;4493529;31;33169;-80
2023/06/04 03:25:52;;;;;;;;;;;;;;;15.93;49.97;99836.09;4493118;31;33750;-78
2023/06/04 03:28:22;;;;;;;;;;;;;;;15.87;50.38;99836.28;4499137;31;34996;-77
2023/06/04 03:30:51;;;;;;;;;;;;;;;16.03;50.39;99841.03;4493240;31;33122;-79
2023/06/04 03:33:20;;;;;;;;;;;;;;;15.73;50.91;99849.00;4492728;31;33575;-78
2023/06/04 03:35:49;;;;;;;;;;;;;;;15.93;50.36;99835.25;4493185;31;33803;-79
2023/06/04 03:38:19;;;;;;;;;;;;;;;16.20;49.99;99849.19;4493288;31;33763;-80
2023/06/04 03:40:49;;;;;;;;;;;;;;;16.16;49.81;99842.31;4484680;31;32813;-79
2023/06/04 03:43:19;;;;;;;;;;;;;;;16.36;48.80;99849.53;4492780;31;33363;-77
2023/06/04 03:45:49;;;;;;;;;;;;;;;16.37;49.65;99846.84;4494179;31;34307;-77
2023/06/04 03:48:17;;;;;;;;;;;;;;;16.36;50.02;99850.38;4493154;31;33505;-77
2023/06/04 03:50:47;;;;;;;;;;;;;;;16.56;49.93;99854.91;4498698;31;33924;-77
2023/06/04 03:53:16;;;;;;;;;;;;;;;16.51;49.99;99854.22;4492916;31;34882;-77
2023/06/04 03:55:46;;;;;;;;;;;;;;;16.55;50.60;99858.44;4493137;31;34774;-80
2023/06/04 03:58:14;;;;;;;;;;;;;;;16.49;50.54;99866.50;4492998;31;34496;-80
2023/06/04 04:00:44;;;;;;;;;;;;;;;16.56;51.33;99860.16;4497514;31;33400;-78
2023/06/04 04:03:14;;;;;;;;;;;;;;;16.59;50.57;99864.41;4498956;31;34020;-79
2023/06/04 04:05:44;;;;;;;;;;;;;;;16.53;51.59;99864.66;4492317;31;33500;-78
2023/06/04 04:08:16;;;;;;;;;;;;;;;16.71;51.13;99869.22;4488103;31;34044;-78
2023/06/04 04:10:46;;;;;;;;;;;;;;;16.97;50.11;99870.09;4477095;31;34283;-77
2023/06/04 04:13:15;;;;;;;;;;;;;;;17.23;49.79;99872.59;4487910;31;34127;-78
2023/06/04 04:15:44;;;;;;;;;;;;;;;17.31;49.19;99868.84;4481974;31;33729;-81
2023/06/04 04:18:16;;;;;;;;;;;;;;;17.44;47.27;99870.06;4481739;31;34670;-77
2023/06/04 04:20:45;;;;;;;;;;;;;;;17.20;48.04;99870.09;4479683;31;33813;-79
2023/06/04 04:23:14;;;;;;;;;;;;;;;17.83;47.09;99872.06;4480615;31;33572;-78
2023/06/04 04:25:44;;;;;;;;;;;;;;;18.48;43.47;99865.00;4488404;31;33734;-79
2023/06/04 04:28:17;;;;;;;;;;;;;;;19.46;41.64;99876.41;4484790;31;35328;-77
2023/06/04 04:30:46;;;;;;;;;;;;;;;20.24;40.31;99871.78;4476557;31;33481;-80
2023/06/04 04:33:16;;;;;;;;;;;;;;;20.35;39.05;99876.53;4482059;31;34316;-80
2023/06/04 04:35:45;;;;;;;;;;;;;;;21.31;37.90;99875.88;4481707;31;34313;-79
2023/06/04 04:38:17;;;;;;;;;;;;;;;21.81;36.66;99877.53;4478581;31;34395;-78
2023/06/04 04:40:47;;;;;;;;;;;;;;;22.19;35.66;99876.28;4482159;31;33293;-78
2023/06/04 04:43:20;;;;;;;;;;;;;;;22.14;35.56;99884.47;4476327;31;34100;-78
2023/06/04 04:45:50;;;;;;;;;;;;;;;21.94;34.34;99885.63;4477572;31;34402;-81
2023/06/04 04:48:19;;;;;;;;;;;;;;;21.42;35.96;99889.38;4482317;31;33796;-80
2023/06/04 04:50:47;;;;;;;;;;;;;;;21.15;36.80;99882.94;4480583;31;33714;-80
2023/06/04 04:53:16;;;;;;;;;;;;;;;20.61;38.28;99881.34;4464706;32;33576;-79
2023/06/04 04:55:44;;;;;;;;;;;;;;;20.32;38.70;99887.19;4486270;31;33380;-79
2023/06/04 04:58:13;;;;;;;;;;;;;;;19.97;40.04;99895.06;4485955;31;33770;-79
2023/06/04 05:00:44;;;;;;;;;;;;;;;20.07;38.81;99882.31;4475101;31;34005;-77
2023/06/04 05:03:12;;;;;;;;;;;;;;;19.82;39.16;99892.25;4487764;31;33471;-77
2023/06/04 05:05:41;;;;;;;;;;;;;;;19.69;41.07;99892.91;4483861;31;35057;-77
2023/06/04 05:08:10;;;;;;;;;;;;;;;19.68;42.07;99899.12;4494552;31;34347;-77
2023/06/04 05:10:40;;;;;;;;;;;;;;;19.82;41.55;99897.53;4488937;31;34614;-78
2023/06/04 05:13:11;;;;;;;;;;;;;;;19.67;43.22;99897.34;4477114;31;33831;-76
2023/06/04 05:15:42;;;;;;;;;;;;;;;19.44;43.43;99895.81;4475853;31;35217;-77
2023/06/04 05:18:12;;;;;;;;;;;;;;;19.51;43.65;99898.09;4475664;31;33290;-76
2023/06/04 05:20:42;;;;;;;;;;;;;;;19.71;43.18;99899.81;4485357;31;32415;-77
2023/06/04 05:23:12;;;;;;;;;;;;;;;19.74;42.97;99906.69;4484038;31;34247;-79
2023/06/04 05:25:42;;;;;;;;;;;;;;;19.73;42.89;99911.13;4477676;31;35051;-79
2023/06/04 05:28:12;;;;;;;;;;;;;;;19.43;43.13;99920.44;4490257;31;33965;-78
2023/06/04 05:30:43;;;;;;;;;;;;;;;19.12;41.99;99912.16;4481980;31;33232;-77
2023/06/04 05:33:18;;;;;;;;;;;;;;;18.87;41.47;99911.50;4470270;31;34687;-77
2023/06/04 05:35:48;;;;;;;;;;;;;;;19.23;40.69;99911.66;4478899;31;34387;-78
2023/06/04 05:38:18;;;;;;;;;;;;;;;19.14;41.58;99914.72;4476631;31;33035;-76
2023/06/04 05:40:47;;;;;;;;;;;;;;;18.89;41.59;99922.81;4487258;31;33460;-82
2023/06/04 05:43:16;;;;;;;;;;;;;;;19.15;41.97;99916.41;4494925;31;33906;-80
2023/06/04 05:45:46;;;;;;;;;;;;;;;18.86;42.36;99915.06;4493188;31;35062;-79
2023/06/04 05:48:16;;;;;;;;;;;;;;;19.03;43.50;99917.81;4491818;31;34171;-82
2023/06/04 05:50:47;;;;;;;;;;;;;;;19.14;42.33;99915.56;4481100;31;32547;-79
2023/06/04 05:53:16;;;;;;;;;;;;;;;19.46;42.00;99915.88;4482304;32;33812;-80
2023/06/04 05:55:45;;;;;;;;;;;;;;;19.64;41.65;99911.50;4489425;31;33364;-80
2023/06/04 05:58:14;;;;;;;;;;;;;;;19.73;41.52;99912.91;4490211;31;34456;-78
2023/06/04 06:00:44;;;;;;;;;;;;;;;19.52;40.28;99912.97;4486615;31;33321;-77
2023/06/04 06:03:16;;;;;;;;;;;;;;;19.42;41.43;99908.19;4491036;31;34228;-79
2023/06/04 06:05:46;;;;;;;;;;;;;;;19.42;41.29;99909.03;4492912;31;34039;-77
2023/06/04 06:08:15;;;;;;;;;;;;;;;19.25;41.61;99912.44;4481339;31;32815;-81
2023/06/04 06:10:44;;;;;;;;;;;;;;;19.37;41.79;99909.25;4475809;31;32792;-78
2023/06/04 06:13:13;;;;;;;;;;;;;;;19.52;40.77;99912.97;4492645;31;33835;-78
2023/06/04 06:15:43;;;;;;;;;;;;;;;19.80;39.74;99911.69;4491286;31;34944;-77
2023/06/04 06:18:12;;;;;;;;;;;;;;;20.06;38.47;99920.13;4495094;31;34034;-78
2023/06/04 06:20:41;;;;;;;;;;;;;;;20.52;37.81;99918.69;4492145;31;33886;-77
2023/06/04 06:23:12;;;;;;;;;;;;;;;20.55;36.95;99928.22;4493140;31;35012;-78
2023/06/04 06:25:41;;;;;;;;;;;;;;;21.03;36.48;99930.13;4490622;31;34216;-80
2023/06/04 06:28:12;;;;;;;;;;;;;;;21.27;36.41;99935.91;4482816;31;33921;-78
2023/06/04 06:30:40;;;;;;;;;;;;;;;20.95;34.82;99936.72;4477812;32;33551;-78
2023/06/04 06:33:09;;;;;;;;;;;;;;;20.81;36.31;99940.09;4477966;31;34743;-78
2023/06/04 06:35:39;;;;;;;;;;;;;;;21.20;34.28;99933.66;4483388;31;33961;-78
2023/06/04 06:38:08;;;;;;;;;;;;;;;20.96;35.49;99939.31;4453695;32;34255;-77
2023/06/04 06:40:38;;;;;;;;;;;;;;;20.78;36.66;99943.75;4462110;32;33340;-79
2023/06/04 06:43:06;;;;;;;;;;;;;;;21.16;36.33;99940.03;4459591;32;33877;-80
2023/06/04 06:45:35;;;;;;;;;;;;;;;21.70;35.48;99946.81;4461488;32;33889;-80
2023/06/04 06:48:05;;;;;;;;;;;;;;;21.83;34.39;99951.41;4462456;32;33852;-79
2023/06/04 06:50:35;;;;;;;;;;;;;;;22.32;34.25;99951.28;4461098;32;34186;-78
2023/06/04 06:53:04;;;;;;;;;;;;;;;22.35;33.63;99956.41;4461776;32;34640;-78
2023/06/04 06:55:32;;;;;;;;;;;;;;;22.35;32.32;99951.12;4461786;32;33705;-78
2023/06/04 06:58:02;;;;;;;;;;;;;;;22.71;32.49;99953.41;4449851;32;34454;-78
2023/06/04 07:00:31;;;;;;;;;;;;;;;22.68;32.04;99955.37;4451398;32;33698;-78
2023/06/04 07:03:00;;;;;;;;;;;;;;;22.64;33.52;99953.84;4451348;32;34872;-81
2023/06/04 07:05:29;;;;;;;;;;;;;;;22.61;31.98;99954.03;4446109;32;34345;-81
2023/06/04 07:07:58;;;;;;;;;;;;;;;22.70;31.81;99954.34;4452340;32;33281;-78
2023/06/04 07:10:28;;;;;;;;;;;;;;;22.99;32.52;99963.19;4464442;32;33408;-78
2023/06/04 07:12:57;;;;;;;;;;;;;;;23.14;31.66;99960.56;4467328;32;33461;-78
2023/06/04 07:15:27;;;;;;;;;;;;;;;23.42;32.66;99962.37;4464629;32;33618;-78
2023/06/04 07:17:55;;;;;;;;;;;;;;;22.55;31.79;99957.88;4461149;32;33842;-81
2023/06/04 07:20:24;;;;;;;;;;;;;;;22.71;31.83;99949.88;4461355;32;34111;-80
2023/06/04 07:22:53;;;;;;;;;;;;;;;23.15;32.41;99955.19;4466638;32;33800;-78
2023/06/04 07:25:23;;;;;;;;;;;;;;;23.08;32.58;99958.31;4461537;32;33542;-78
2023/06/04 07:27:52;;;;;;;;;;;;;;;23.25;32.15;99954.63;4446700;32;33479;-78
2023/06/04 07:30:21;;;;;;;;;;;;;;;23.66;29.49;99960.00;4444540;32;33976;-79
2023/06/04 07:32:51;;;;;;;;;;;;;;;23.89;30.23;99960.34;4450701;32;34374;-78
2023/06/04 07:35:20;;;;;;;;;;;;;;;24.03;31.05;99962.97;4445832;32;34493;-80
2023/06/04 07:37:49;;;;;;;;;;;;;;;24.21;31.02;99958.25;4473284;32;33999;-78
2023/06/04 07:40:18;;;;;;;;;;;;;;;23.78;30.53;99959.25;4477162;32;33529;-77
2023/06/04 07:42:47;;;;;;;;;;;;;;;23.81;30.04;99966.97;4478106;32;33940;-77
2023/06/04 07:45:19;;;;;;;;;;;;;;;23.74;30.11;99964.84;4482853;32;34091;-78
2023/06/04 07:47:48;;;;;;;;;;;;;;;23.81;29.88;99964.34;4477157;32;33561;-79
2023/06/04 07:50:19;;;;;;;;;;;;;;;23.84;30.65;99969.44;4477465;32;33168;-78
2023/06/04 07:52:47;;;;;;;;;;;;;;;23.64;30.03;99967.19;4477047;32;33815;-77
2023/06/04 07:55:16;;;;;;;;;;;;;;;23.57;30.45;99965.88;4483058;32;34225;-78
2023/06/04 07:57:45;;;;;;;;;;;;;;;23.55;30.36;99970.41;4477247;32;34785;-79
2023/06/04 08:00:15;;;;;;;;;;;;;;;23.86;30.24;99974.66;4477584;32;32563;-78
2023/06/04 08:02:44;;;;;;;;;;;;;;;23.87;31.02;99975.50;4477090;32;35631;-80
2023/06/04 08:05:14;;;;;;;;;;;;;;;24.30;30.80;99973.56;4478059;32;34864;-79
2023/06/04 08:07:44;;;;;;;;;;;;;;;24.35;29.66;99978.56;4487078;31;34998;-78
2023/06/04 08:10:12;;;;;;;;;;;;;;;24.51;29.83;99971.31;4493076;31;32325;-81
2023/06/04 08:12:41;;;;;;;;;;;;;;;24.19;29.26;99979.56;4492906;31;33597;-78
2023/06/04 08:15:10;;;;;;;;;;;;;;;24.77;29.86;99968.75;4493049;31;35104;-78
2023/06/04 08:17:53;;;;;;;;;;;;;;;25.05;28.52;99976.47;4498500;31;34172;-79
2023/06/04 08:20:25;;;;;;;;;;;;;;;25.27;27.72;99975.91;4497926;31;33420;-80
2023/06/04 08:23:14;;;;;;;;;;;;;;;25.73;28.15;99982.41;4492852;31;34750;-80
2023/06/04 08:26:00;;;;;;;;;;;;;;;25.55;26.93;99980.09;4493212;31;34221;-78
2023/06/04 08:28:45;;;;;;;;;;;;;;;25.72;27.41;99978.06;4493079;31;34493;-78
2023/06/04 08:31:34;;;;;;;;;;;;;;;25.96;27.33;99972.81;4480643;31;32372;-79
2023/06/04 08:34:10;;;;;;;;;;;;;;;25.79;27.34;99974.00;4492932;31;34952;-78
2023/06/04 08:36:41;;;;;;;;;;;;;;;25.94;26.85;99980.88;4497139;31;34218;-78
2023/06/04 08:39:11;;;;;;;;;;;;;;;25.88;27.50;99983.16;4486808;31;35651;-80
2023/06/04 08:41:42;;;;;;;;;;;;;;;25.81;27.96;99981.88;4477699;32;32880;-80
2023/06/04 08:44:11;;;;;;;;;;;;;;;25.54;26.49;99977.56;4476998;32;34011;-79
2023/06/04 08:46:40;;;;;;;;;;;;;;;25.43;28.36;99978.31;4482532;32;34976;-77
2023/06/04 08:49:09;;;;;;;;;;;;;;;25.34;28.66;99984.28;4477185;32;33055;-80
2023/06/04 08:51:38;;;;;;;;;;;;;;;25.34;27.73;99978.97;4476889;32;33621;-81
2023/06/04 08:54:08;;;;;;;;;;;;;;;25.22;28.20;99978.00;4485974;31;34061;-80
2023/06/04 08:56:39;;;;;;;;;;;;;;;25.03;28.29;99978.41;4492915;31;33197;-79
2023/06/04 08:59:10;;;;;;;;;;;;;;;25.03;29.22;99982.84;4498239;31;33219;-78
2023/06/04 09:01:41;;;;;;;;;;;;;;;24.89;29.28;99986.47;4492162;31;33541;-79
2023/06/04 09:04:11;;;;;;;;;;;;;;;24.89;29.95;99978.50;4492623;31;33655;-78
2023/06/04 09:06:41;;;;;;;;;;;;;;;24.87;29.79;99978.59;4492414;31;33733;-80
2023/06/04 09:09:10;;;;;;;;;;;;;;;24.79;30.54;99978.28;4498475;31;34513;-81
2023/06/04 09:11:40;;;;;;;;;;;;;;;24.85;30.52;99979.66;4492360;31;33036;-80
2023/06/04 09:14:09;;;;;;;;;;;;;;;24.67;30.77;99984.44;4492445;31;33775;-78
2023/06/04 09:16:45;;;;;;;;;;;;;;;24.69;31.15;99975.41;4492103;31;33848;-81
2023/06/04 09:19:13;;;;;;;;;;;;;;;24.83;30.31;99978.91;4492699;31;34456;-80
2023/06/04 09:21:49;;;;;;;;;;;;;;;25.02;30.20;99978.50;4497672;31;33722;-78
2023/06/04 09:24:18;;;;;;;;;;;;;;;24.75;30.31;99979.44;4492037;31;34934;-79
2023/06/04 09:26:48;;;;;;;;;;;;;;;24.93;29.67;99977.31;4492276;31;35084;-78
2023/06/04 09:29:17;;;;;;;;;;;;;;;25.05;30.14;99979.13;4492133;31;33554;-78
2023/06/04 09:31:47;;;;;;;;;;;;;;;25.12;30.83;99980.41;4497995;31;32759;-81
2023/06/04 09:34:16;;;;;;;;;;;;;;;24.85;31.75;99980.50;4492262;31;33975;-78
2023/06/04 09:36:45;;;;;;;;;;;;;;;24.95;32.26;99979.88;4491691;31;34763;-80
2023/06/04 09:39:17;;;;;;;;;;;;;;;24.97;31.76;99978.00;4485380;31;33874;-78
2023/06/04 09:41:53;;;;;;;;;;;;;;;25.10;31.39;99984.13;4476271;32;32265;-78
2023/06/04 09:44:22;;;;;;;;;;;;;;;25.13;30.58;99982.12;4481633;32;34049;-78
2023/06/04 09:46:54;;;;;;;;;;;;;;;25.14;31.29;99990.94;4476076;32;35029;-80
2023/06/04 09:49:22;;;;;;;;;;;;;;;25.20;30.55;99984.38;4477909;32;33612;-80
2023/06/04 09:51:52;;;;;;;;;;;;;;;25.03;31.56;99991.69;4485499;31;33302;-81
2023/06/04 09:54:20;;;;;;;;;;;;;;;25.05;31.96;99989.75;4499292;31;34535;-80
2023/06/04 09:56:51;;;;;;;;;;;;;;;24.96;31.20;99987.75;4498547;31;34444;-80
2023/06/04 09:59:21;;;;;;;;;;;;;;;24.93;31.69;99985.28;4494076;31;35130;-78
2023/06/04 10:01:53;;;;;;;;;;;;;;;24.88;31.68;100001.53;4493936;31;33110;-79
2023/06/04 10:04:22;;;;;;;;;;;;;;;24.80;31.71;99998.56;4493752;31;33808;-81
2023/06/04 10:06:52;;;;;;;;;;;;;;;24.77;32.38;100008.53;4498431;31;34306;-78
2023/06/04 10:09:20;;;;;;;;;;;;;;;24.55;34.65;100002.00;4478218;32;33729;-78
2023/06/04 10:11:51;;;;;;;;;;;;;;;24.65;33.67;100007.56;4478129;32;33750;-80
2023/06/04 10:14:20;;;;;;;;;;;;;;;24.70;33.27;100000.97;4477781;32;35073;-81
2023/06/04 10:16:51;;;;;;;;;;;;;;;24.31;34.56;100003.56;4489691;31;35174;-80
2023/06/04 10:19:20;;;;;;;;;;;;;;;24.38;33.05;100002.22;4495039;31;34393;-78
2023/06/04 10:21:49;;;;;;;;;;;;;;;24.54;32.91;99999.44;4493711;31;32964;-80
2023/06/04 10:24:20;;;;;;;;;;;;;;;24.46;33.23;99992.84;4494611;31;34608;-80
2023/06/04 10:26:49;;;;;;;;;;;;;;;24.48;33.01;99993.59;4493714;31;33868;-79
2023/06/04 10:29:17;;;;;;;;;;;;;;;24.45;33.48;99991.13;4499381;31;33579;-80
2023/06/04 10:34:35;;;;;;;;;;;;;;;24.63;33.34;99994.37;4495038;31;34508;-80
2023/06/04 10:37:04;;;;;;;;;;;;;;;24.45;33.11;99996.44;4493485;31;34729;-81
2023/06/04 10:39:33;;;;;;;;;;;;;;;24.60;31.24;99999.06;4490932;31;33971;-78
2023/06/04 10:42:03;;;;;;;;;;;;;;;24.74;31.04;99996.28;4499329;31;32788;-79
2023/06/04 10:44:32;;;;;;;;;;;;;;;24.83;30.66;99989.53;4488894;31;33690;-78
2023/06/04 10:47:00;;;;;;;;;;;;;;;24.68;30.47;99994.06;4493274;31;34123;-79
2023/06/04 10:49:29;;;;;;;;;;;;;;;24.70;29.76;99989.53;4493273;31;34286;-80
2023/06/04 10:52:10;;;;;;;;;;;;;;;25.07;27.56;99982.53;4499467;31;32957;-78
2023/06/04 10:54:39;;;;;;;;;;;;;;;25.04;28.21;99987.22;4494548;31;34006;-81
2023/06/04 10:57:11;;;;;;;;;;;;;;;24.97;25.22;99986.78;4493595;31;33987;-81
2023/06/04 10:59:40;;;;;;;;;;;;;;;25.06;27.49;99985.31;4492773;31;34803;-79
2023/06/04 11:02:09;;;;;;;;;;;;;;;25.08;25.53;99986.03;4493908;31;32737;-80
2023/06/04 11:04:38;;;;;;;;;;;;;;;24.99;26.71;99987.53;4498957;31;34624;-80
2023/06/04 11:07:09;;;;;;;;;;;;;;;25.00;26.66;99986.56;4490839;31;33969;-78
2023/06/04 11:09:38;;;;;;;;;;;;;;;24.98;26.01;99985.81;4492966;31;33632;-78
2023/06/04 11:12:07;;;;;;;;;;;;;;;25.03;28.51;99991.69;4493434;31;33353;-78
2023/06/04 11:14:36;;;;;;;;;;;;;;;25.13;27.75;99987.44;4499254;31;33769;-78
2023/06/04 11:17:12;;;;;;;;;;;;;;;25.16;29.56;99988.19;4493578;31;34608;-78
2023/06/04 11:19:40;;;;;;;;;;;;;;;25.04;27.20;99984.56;4493546;31;33855;-81
2023/06/04 11:22:13;;;;;;;;;;;;;;;24.96;28.04;99982.44;4493346;31;34071;-79
2023/06/04 11:24:42;;;;;;;;;;;;;;;24.48;28.82;99987.44;4493173;31;33886;-80
2023/06/04 11:27:11;;;;;;;;;;;;;;;24.69;28.25;99982.50;4499019;31;33815;-80
2023/06/04 11:29:52;;;;;;;;;;;;;;;24.83;30.36;99984.22;4493795;31;34251;-78
2023/06/04 11:32:24;;;;;;;;;;;;;;;24.85;30.67;99982.31;4493329;31;32850;-78
2023/06/04 11:35:03;;;;;;;;;;;;;;;24.91;31.71;99980.09;4493300;31;34424;-77
2023/06/04 11:37:33;;;;;;;;;;;;;;;24.90;29.96;99980.19;4492960;31;33617;-78
2023/06/04 11:40:05;;;;;;;;;;;;;;;24.47;30.08;99977.78;4472298;32;32631;-81
2023/06/04 11:42:36;;;;;;;;;;;;;;;24.58;31.41;99988.53;4477682;32;33545;-81
2023/06/04 11:45:06;;;;;;;;;;;;;;;24.52;29.76;99985.44;4477541;32;34751;-81
2023/06/04 11:47:35;;;;;;;;;;;;;;;24.06;31.89;99983.97;4477304;32;34415;-78
2023/06/04 11:50:04;;;;;;;;;;;;;;;23.99;33.17;99990.59;4482937;32;34248;-80
2023/06/04 11:52:38;;;;;;;;;;;;;;;23.78;32.12;99993.69;4465857;32;33425;-77
2023/06/04 11:55:08;;;;;;;;;;;;;;;23.95;31.70;99987.31;4477364;32;33253;-79
2023/06/04 11:57:37;;;;;;;;;;;;;;;23.08;33.58;99985.63;4477434;32;34351;-78
2023/06/04 12:00:09;;;;;;;;;;;;;;;23.76;33.45;99992.94;4477384;32;34445;-80
2023/06/04 12:02:39;;;;;;;;;;;;;;;23.76;35.13;99992.94;4483223;32;35167;-77
2023/06/04 12:05:12;;;;;;;;;;;;;;;23.78;34.39;99990.19;4477056;32;34198;-79
2023/06/04 12:07:42;;;;;;;;;;;;;;;23.75;34.87;99991.22;4477357;32;33614;-78
2023/06/04 12:10:11;;;;;;;;;;;;;;;23.74;34.62;99994.81;4477432;32;33612;-78
2023/06/04 12:12:41;;;;;;;;;;;;;;;23.65;35.76;99990.06;4483334;32;33203;-78
2023/06/04 12:15:10;;;;;;;;;;;;;;;23.76;33.75;99992.09;4482202;32;34429;-78
2023/06/04 12:17:49;;;;;;;;;;;;;;;23.78;34.37;99991.03;4477348;32;33953;-79
2023/06/04 12:20:18;;;;;;;;;;;;;;;23.69;34.69;99998.69;4477081;31;33699;-79
2023/06/04 12:22:52;;;;;;;;;;;;;;;23.77;34.59;99991.13;4482208;31;33888;-77
2023/06/04 12:25:24;;;;;;;;;;;;;;;24.01;33.22;99986.91;4498755;31;34544;-78
2023/06/04 12:27:53;;;;;;;;;;;;;;;24.11;32.58;99989.81;4492769;31;34616;-80
2023/06/04 12:30:22;;;;;;;;;;;;;;;23.64;34.02;99983.91;4478150;31;32911;-79
2023/06/04 12:32:51;;;;;;;;;;;;;;;23.49;34.51;99984.88;4493016;31;33599;-78
2023/06/04 12:35:20;;;;;;;;;;;;;;;23.99;31.40;99986.19;4457102;31;1187863;-78
2023/06/04 12:37:51;;;;;;;;;;;;;;;23.98;32.65;99986.25;4498246;31;34345;-78
2023/06/04 12:40:19;;;;;;;;;;;;;;;23.72;34.46;99983.44;4478676;31;35989;-77
2023/06/04 12:42:50;;;;;;;;;;;;;;;23.77;34.25;99985.81;4477061;32;33799;-78
2023/06/04 12:45:18;;;;;;;;;;;;;;;23.70;35.91;99981.81;4477000;32;34945;-78
2023/06/04 12:47:47;;;;;;;;;;;;;;;23.93;34.49;99983.06;4482562;32;33737;-78
2023/06/04 12:50:18;;;;;;;;;;;;;;;23.98;34.98;99975.66;4476983;32;34616;-77
2023/06/04 12:52:51;;;;;;;;;;;;;;;23.94;35.73;99972.34;4477127;32;33501;-78
2023/06/04 12:55:20;;;;;;;;;;;;;;;23.96;35.09;99969.59;4476704;32;33429;-80
2023/06/04 12:57:48;;;;;;;;;;;;;;;24.11;35.80;99965.09;4477099;32;34238;-79
2023/06/04 13:00:17;;;;;;;;;;;;;;;24.19;32.61;99974.28;4482447;32;33698;-78
2023/06/04 13:02:46;;;;;;;;;;;;;;;24.52;32.90;99967.72;4477359;31;32873;-81